createdAt,value
2022-11-05T00:01:13.523Z,78.80
2022-11-05T00:06:34.972Z,78.90
2022-11-05T00:11:56.659Z,78.80
2022-11-05T00:17:01.770Z,79.40
2022-11-05T00:22:22.760Z,79.40
2022-11-05T00:27:26.419Z,79.30
2022-11-05T00:32:32.934Z,79.20
2022-11-05T00:37:36.781Z,79.40
2022-11-05T00:43:01.406Z,79.50
2022-11-05T00:48:25.277Z,79.30
2022-11-05T00:53:29.028Z,79.50
2022-11-05T00:58:32.711Z,79.60
2022-11-05T01:03:40.783Z,79.70
2022-11-05T01:08:47.174Z,80.00
2022-11-05T01:13:50.770Z,80.00
2022-11-05T01:18:55.762Z,79.80
2022-11-05T01:23:59.508Z,79.70
2022-11-05T01:29:03.183Z,79.50
2022-11-05T01:34:08.235Z,79.70
2022-11-05T01:39:11.871Z,79.90
2022-11-05T01:44:59.251Z,79.80
2022-11-05T01:50:13.354Z,79.60
2022-11-05T01:55:24.504Z,79.40
2022-11-05T02:00:29.129Z,79.40
2022-11-05T02:05:35.388Z,79.20
2022-11-05T02:10:39.345Z,79.70
2022-11-05T02:16:04.091Z,79.60
2022-11-05T02:22:13.386Z,79.60
2022-11-05T02:27:40.158Z,79.60
2022-11-05T02:33:12.023Z,79.50
2022-11-05T02:38:38.245Z,79.60
2022-11-05T02:43:59.122Z,79.60
2022-11-05T02:49:20.090Z,79.80
2022-11-05T02:54:30.791Z,79.90
2022-11-05T02:59:34.398Z,79.70
2022-11-05T03:04:39.600Z,79.70
2022-11-05T03:10:19.919Z,79.60
2022-11-05T03:15:44.179Z,79.80
2022-11-05T03:21:00.255Z,79.90
2022-11-05T03:26:11.354Z,80.10
2022-11-05T03:31:18.341Z,80.00
2022-11-05T03:36:29.856Z,79.50
2022-11-05T03:41:35.479Z,78.90
2022-11-05T03:46:44.361Z,78.90
2022-11-05T03:51:56.879Z,79.10
2022-11-05T03:57:08.275Z,78.80
2022-11-05T04:02:13.587Z,78.60
2022-11-05T04:07:36.614Z,78.60
2022-11-05T04:12:57.768Z,78.40
2022-11-05T04:18:01.583Z,78.50
2022-11-05T04:23:25.938Z,78.60
2022-11-05T04:28:49.480Z,78.50
2022-11-05T04:33:53.029Z,78.60
2022-11-05T04:38:58.068Z,78.80
2022-11-05T04:44:02.434Z,79.50
2022-11-05T04:49:05.949Z,79.50
2022-11-05T04:54:10.923Z,79.50
2022-11-05T04:59:14.586Z,79.50
2022-11-05T05:04:18.274Z,79.50
2022-11-05T05:09:23.322Z,79.60
2022-11-05T05:14:27.072Z,79.70
2022-11-05T05:19:50.958Z,79.80
2022-11-05T05:24:56.742Z,80.10
2022-11-05T05:30:01.187Z,80.30
2022-11-05T05:35:05.251Z,80.30
2022-11-05T05:40:12.935Z,78.90
2022-11-05T05:45:16.309Z,78.40
2022-11-05T05:50:19.848Z,78.10
2022-11-05T05:55:30.267Z,77.80
2022-11-05T06:00:34.195Z,77.60
2022-11-05T06:05:37.758Z,77.50
2022-11-05T06:10:42.872Z,77.50
2022-11-05T06:15:46.536Z,77.40
2022-11-05T06:20:50.077Z,77.30
2022-11-05T06:25:55.144Z,77.70
2022-11-05T06:30:59.243Z,77.50
2022-11-05T06:36:04.462Z,77.60
2022-11-05T06:41:10.725Z,77.40
2022-11-05T06:46:14.726Z,77.30
2022-11-05T06:51:18.367Z,77.50
2022-11-05T06:56:23.265Z,77.40
2022-11-05T07:01:26.915Z,77.50
2022-11-05T07:06:35.795Z,77.50
2022-11-05T07:11:42.046Z,77.30
2022-11-05T07:16:45.860Z,77.40
2022-11-05T07:21:50.915Z,77.20
2022-11-05T07:26:55.955Z,77.30
2022-11-05T07:31:59.604Z,77.20
2022-11-05T07:37:03.234Z,77.90
2022-11-05T07:42:08.396Z,77.10
2022-11-05T07:47:12.273Z,77.00
2022-11-05T07:52:16.093Z,77.20
2022-11-05T07:57:21.017Z,76.90
2022-11-05T08:02:24.805Z,77.40
2022-11-05T08:07:29.608Z,77.20
2022-11-05T08:12:35.049Z,75.40
2022-11-05T08:17:38.523Z,74.30
2022-11-05T08:22:44.682Z,73.00
2022-11-05T08:27:51.177Z,71.90
2022-11-05T08:32:59.561Z,70.90
2022-11-05T08:38:07.024Z,69.70
2022-11-05T08:43:15.606Z,69.10
2022-11-05T08:48:20.600Z,68.50
2022-11-05T08:53:24.093Z,68.00
2022-11-05T08:58:29.114Z,67.50
2022-11-05T09:03:32.721Z,67.10
2022-11-05T09:08:36.315Z,67.10
2022-11-05T09:13:41.352Z,66.70
2022-11-05T09:18:44.975Z,66.20
2022-11-05T09:23:49.210Z,65.90
2022-11-05T09:28:54.800Z,65.70
2022-11-05T09:33:58.278Z,65.40
2022-11-05T09:39:01.924Z,65.40
2022-11-05T09:44:14.873Z,65.20
2022-11-05T09:49:27.939Z,65.10
2022-11-05T09:54:33.327Z,65.00
2022-11-05T09:59:46.588Z,64.90
2022-11-05T10:04:56.571Z,65.00
2022-11-05T10:10:07.480Z,64.80
2022-11-05T10:15:19.766Z,64.90
2022-11-05T10:20:35.504Z,64.70
2022-11-05T10:25:43.878Z,64.70
2022-11-05T10:30:53.487Z,65.70
2022-11-05T10:36:05.765Z,66.60
2022-11-05T10:41:39.913Z,67.30
2022-11-05T10:46:57.277Z,68.00
2022-11-05T10:52:24.112Z,68.70
2022-11-05T10:57:36.937Z,69.40
2022-11-05T11:02:43.090Z,69.70
2022-11-05T11:08:01.692Z,70.60
2022-11-05T11:13:05.322Z,70.40
2022-11-05T11:18:37.392Z,70.90
2022-11-05T11:23:45.673Z,71.20
2022-11-05T11:28:57.232Z,71.10
2022-11-05T11:34:06.466Z,71.40
2022-11-05T11:39:20.834Z,71.80
2022-11-05T11:44:31.062Z,71.80
2022-11-05T11:49:47.846Z,72.10
2022-11-05T11:54:53.183Z,72.20
2022-11-05T12:00:14.635Z,72.20
2022-11-05T12:05:34.652Z,72.30
2022-11-05T12:10:59.287Z,72.40
2022-11-05T12:16:16.921Z,73.30
2022-11-05T12:21:51.474Z,73.80
2022-11-05T12:27:14.942Z,73.90
2022-11-05T12:32:54.741Z,74.60
2022-11-05T12:38:12.431Z,73.90
2022-11-05T12:43:31.214Z,73.90
2022-11-05T12:49:12.156Z,74.00
2022-11-05T12:54:40.596Z,74.00
2022-11-05T12:59:55.080Z,74.10
2022-11-05T13:05:07.845Z,74.20
2022-11-05T13:10:28.895Z,74.20
2022-11-05T13:15:40.268Z,74.30
2022-11-05T13:20:52.093Z,74.40
2022-11-05T13:26:15.665Z,74.40
2022-11-05T13:31:34.041Z,74.40
2022-11-05T13:37:12.626Z,74.50
2022-11-05T13:43:12.120Z,74.50
2022-11-05T14:29:26.071Z,75.00
2022-11-05T14:34:49.668Z,75.10
2022-11-05T14:39:55.841Z,75.10
2022-11-05T14:45:28.976Z,75.20
2022-11-05T14:50:38.953Z,75.30
2022-11-05T14:55:46.424Z,75.30
2022-11-05T15:00:53.198Z,75.60
2022-11-05T15:06:22.269Z,75.60
2022-11-05T15:11:34.892Z,75.70
2022-11-05T15:16:50.667Z,75.70
2022-11-05T15:21:59.562Z,75.80
2022-11-05T15:27:21.262Z,75.90
2022-11-05T15:32:28.108Z,75.90
2022-11-05T15:37:34.057Z,76.00
2022-11-05T15:42:41.277Z,76.10
2022-11-05T15:47:48.576Z,76.10
2022-11-05T15:52:55.475Z,76.20
2022-11-05T15:58:07.471Z,76.60
2022-11-05T16:03:27.035Z,77.30
2022-11-05T16:08:32.060Z,76.50
2022-11-05T16:13:38.600Z,76.00
2022-11-05T16:18:45.872Z,75.90
2022-11-05T16:23:57.540Z,75.00
2022-11-05T16:29:04.419Z,74.80
2022-11-05T16:34:27.735Z,74.40
2022-11-05T16:39:31.591Z,74.50
2022-11-05T16:44:35.178Z,74.10
2022-11-05T16:49:40.105Z,74.00
2022-11-05T16:54:44.214Z,73.70
2022-11-05T16:59:47.924Z,74.80
2022-11-05T17:04:53.086Z,74.80
2022-11-05T17:09:58.025Z,75.00
2022-11-05T17:15:01.804Z,75.50
2022-11-05T17:20:13.898Z,75.80
2022-11-05T17:25:17.875Z,75.80
2022-11-05T17:30:21.732Z,76.20
2022-11-05T17:35:27.324Z,76.40
2022-11-05T17:40:31.016Z,76.40
2022-11-05T17:45:34.914Z,76.40
2022-11-05T17:50:44.008Z,76.40
2022-11-05T17:55:49.134Z,76.50
2022-11-05T18:00:52.704Z,76.50
2022-11-05T18:06:03.292Z,76.60
2022-11-05T18:11:07.272Z,76.60
2022-11-05T18:16:11.395Z,76.60
2022-11-05T18:21:16.593Z,76.70
2022-11-05T18:26:20.838Z,76.70
2022-11-05T18:31:24.452Z,76.70
2022-11-05T18:36:33.307Z,76.70
2022-11-05T18:41:36.970Z,76.80
2022-11-05T18:52:07.478Z,76.80
2022-11-05T18:57:11.146Z,76.80
2022-11-05T19:02:15.935Z,76.90
2022-11-05T19:07:23.844Z,77.00
2022-11-05T19:12:27.094Z,77.00
2022-11-05T19:17:30.811Z,77.50
2022-11-05T19:22:36.104Z,76.50
2022-11-05T19:27:39.694Z,75.70
2022-11-05T19:32:43.144Z,75.40
2022-11-05T19:37:49.699Z,75.20
2022-11-05T19:42:53.379Z,75.20
2022-11-05T19:47:57.303Z,75.20
2022-11-05T19:53:03.458Z,75.30
2022-11-05T19:58:07.157Z,75.30
2022-11-05T20:03:12.732Z,75.40
2022-11-05T20:08:17.769Z,75.60
2022-11-05T20:13:21.371Z,75.80
2022-11-05T20:18:25.771Z,76.00
2022-11-05T20:23:31.400Z,76.20
2022-11-05T20:28:36.780Z,76.30
2022-11-05T20:33:41.168Z,76.60
2022-11-05T20:38:50.375Z,76.50
2022-11-05T20:43:54.030Z,76.60
2022-11-05T20:48:57.600Z,76.60
2022-11-05T20:54:03.884Z,76.70
2022-11-05T20:59:07.534Z,76.80
2022-11-05T21:04:11.215Z,76.90
2022-11-05T21:09:16.270Z,77.00
2022-11-05T21:14:19.897Z,77.00
2022-11-05T21:19:24.108Z,77.20
2022-11-05T21:24:29.130Z,77.20
2022-11-05T21:29:32.618Z,77.30
2022-11-05T21:34:36.160Z,77.40
2022-11-05T21:39:41.119Z,77.30
2022-11-05T21:44:44.725Z,77.40
2022-11-05T21:49:48.345Z,77.50
2022-11-05T21:55:10.770Z,77.50
2022-11-05T22:00:15.344Z,77.50
2022-11-05T22:05:19.190Z,77.60
2022-11-05T22:10:24.770Z,77.70
2022-11-05T22:15:28.358Z,77.70
2022-11-05T22:20:32.284Z,77.70
2022-11-05T22:25:38.477Z,78.00
2022-11-05T22:30:42.126Z,81.60
2022-11-05T22:35:45.582Z,81.30
2022-11-05T22:40:50.509Z,81.20
2022-11-05T22:45:54.057Z,80.90
2022-11-05T22:50:57.494Z,80.80
2022-11-05T22:56:04.691Z,80.70
2022-11-05T23:01:11.797Z,80.60
2022-11-05T23:06:33.269Z,80.50
2022-11-05T23:11:44.150Z,80.50
2022-11-05T23:17:05.516Z,80.50
2022-11-05T23:22:31.597Z,80.40
2022-11-05T23:27:39.794Z,80.50
2022-11-05T23:32:43.483Z,80.40
2022-11-05T23:38:19.166Z,80.40
2022-11-05T23:43:42.021Z,80.40
2022-11-05T23:48:45.456Z,80.30
2022-11-05T23:53:49.058Z,80.30
2022-11-05T23:58:54.093Z,80.30
